createdAt,value
2023-04-07T00:00:49.056Z,10.63
2023-04-07T00:03:16.576Z,9.20
2023-04-07T00:05:43.618Z,10.47
2023-04-07T00:08:10.566Z,11.57
2023-04-07T00:10:37.378Z,12.27
2023-04-07T00:13:04.560Z,8.83
2023-04-07T00:15:31.619Z,13.43
2023-04-07T00:17:58.578Z,8.07
2023-04-07T00:20:25.569Z,16.00
2023-04-07T00:22:52.377Z,9.40
2023-04-07T00:25:19.276Z,9.73
2023-04-07T00:27:46.107Z,11.53
2023-04-07T00:30:13.089Z,9.83
2023-04-07T00:32:39.874Z,10.13
2023-04-07T00:35:07.280Z,10.17
2023-04-07T00:37:34.066Z,10.67
2023-04-07T00:40:01.040Z,8.57
2023-04-07T00:42:27.846Z,9.10
2023-04-07T00:44:54.603Z,9.70
2023-04-07T00:47:21.445Z,12.27
2023-04-07T00:49:48.465Z,7.57
2023-04-07T00:52:16.465Z,9.57
2023-04-07T00:54:44.762Z,7.90
2023-04-07T00:57:11.530Z,10.77
2023-04-07T00:59:38.797Z,9.07
2023-04-07T01:02:21.891Z,12.13
2023-04-07T01:05:21.713Z,6.80
2023-04-07T01:08:05.688Z,8.47
2023-04-07T01:10:55.174Z,7.73
2023-04-07T01:13:30.939Z,7.47
2023-04-07T01:16:00.948Z,7.97
2023-04-07T01:18:34.578Z,6.53
2023-04-07T01:21:06.494Z,4.67
2023-04-07T01:23:51.930Z,3.90
2023-04-07T01:26:33.561Z,5.10
2023-04-07T01:29:25.413Z,10.07
2023-04-07T01:31:55.744Z,5.13
2023-04-07T01:34:26.100Z,7.90
2023-04-07T01:36:55.051Z,6.60
2023-04-07T01:39:22.861Z,5.73
2023-04-07T01:41:53.052Z,7.10
2023-04-07T01:44:21.215Z,9.53
2023-04-07T01:46:51.184Z,6.57
2023-04-07T01:49:18.876Z,6.10
2023-04-07T01:51:50.367Z,6.53
2023-04-07T01:54:18.590Z,6.87
2023-04-07T01:56:45.633Z,5.33
2023-04-07T01:59:12.592Z,5.13
2023-04-07T02:01:39.933Z,7.97
2023-04-07T02:04:25.727Z,6.67
2023-04-07T02:06:58.604Z,8.70
2023-04-07T02:09:27.313Z,6.30
2023-04-07T02:11:57.430Z,8.67
2023-04-07T02:14:24.984Z,9.70
2023-04-07T02:16:53.616Z,9.27
2023-04-07T02:19:20.999Z,10.13
2023-04-07T02:21:51.429Z,9.80
2023-04-07T02:24:21.866Z,7.47
2023-04-07T02:26:48.908Z,6.27
2023-04-07T02:29:15.966Z,12.93
2023-04-07T02:31:42.962Z,7.67
2023-04-07T02:34:09.816Z,9.57
2023-04-07T02:36:36.706Z,6.67
2023-04-07T02:39:03.802Z,11.13
2023-04-07T02:41:30.951Z,9.33
2023-04-07T02:43:58.146Z,6.83
2023-04-07T02:46:25.457Z,7.77
2023-04-07T02:48:52.360Z,14.30
2023-04-07T02:51:19.179Z,5.93
2023-04-07T02:53:46.214Z,7.83
2023-04-07T02:56:12.945Z,9.87
2023-04-07T02:58:39.777Z,12.23
2023-04-07T03:01:06.584Z,7.63
2023-04-07T03:03:33.431Z,7.90
2023-04-07T03:06:00.269Z,7.07
2023-04-07T03:08:27.449Z,8.37
2023-04-07T03:10:54.346Z,5.73
2023-04-07T03:13:21.652Z,11.40
2023-04-07T03:15:48.459Z,4.40
2023-04-07T03:18:15.791Z,7.93
2023-04-07T03:20:42.630Z,4.33
2023-04-07T03:23:09.369Z,6.80
2023-04-07T03:25:36.550Z,8.63
2023-04-07T03:28:03.729Z,11.83
2023-04-07T03:30:30.555Z,6.90
2023-04-07T03:32:57.424Z,10.87
2023-04-07T03:35:24.323Z,9.27
2023-04-07T03:37:51.144Z,8.83
2023-04-07T03:40:18.106Z,8.23
2023-04-07T03:42:46.624Z,11.23
2023-04-07T03:45:13.603Z,11.30
2023-04-07T03:47:40.496Z,10.13
2023-04-07T03:50:07.614Z,9.97
2023-04-07T03:52:34.353Z,10.23
2023-04-07T03:55:01.537Z,9.43
2023-04-07T03:57:28.315Z,9.10
2023-04-07T03:59:56.171Z,7.70
2023-04-07T04:02:23.315Z,9.20
2023-04-07T04:04:50.468Z,9.00
2023-04-07T04:07:17.246Z,8.07
2023-04-07T04:09:44.077Z,7.80
2023-04-07T04:12:10.825Z,11.83
2023-04-07T04:14:37.582Z,8.00
2023-04-07T04:17:05.424Z,13.10
2023-04-07T04:19:32.724Z,11.43
2023-04-07T04:21:59.451Z,11.27
2023-04-07T04:24:26.275Z,7.17
2023-04-07T04:26:53.027Z,7.60
2023-04-07T04:29:19.831Z,9.37
2023-04-07T04:31:46.696Z,10.07
2023-04-07T04:34:13.601Z,7.60
2023-04-07T04:36:41.612Z,11.70
2023-04-07T04:39:08.420Z,9.43
2023-04-07T04:41:35.349Z,8.93
2023-04-07T04:44:02.107Z,12.10
2023-04-07T04:46:28.976Z,13.47
2023-04-07T04:48:56.461Z,15.40
2023-04-07T04:51:23.738Z,15.40
2023-04-07T04:53:50.709Z,14.70
2023-04-07T04:56:17.764Z,12.17
2023-04-07T04:58:46.643Z,13.73
2023-04-07T05:01:14.445Z,10.40
2023-04-07T05:03:41.577Z,13.30
2023-04-07T05:06:08.637Z,13.23
2023-04-07T05:08:35.667Z,9.87
2023-04-07T05:11:02.538Z,13.00
2023-04-07T05:13:31.078Z,12.50
2023-04-07T05:15:57.891Z,14.90
2023-04-07T05:18:24.843Z,14.70
2023-04-07T05:20:51.618Z,15.73
2023-04-07T05:23:18.571Z,15.10
2023-04-07T05:25:45.483Z,11.80
2023-04-07T05:28:12.260Z,12.83
2023-04-07T05:30:39.040Z,12.07
2023-04-07T05:33:06.030Z,14.83
2023-04-07T05:35:32.857Z,10.53
2023-04-07T05:37:59.651Z,18.27
2023-04-07T05:40:26.447Z,16.53
2023-04-07T05:42:53.234Z,14.13
2023-04-07T05:45:20.194Z,14.17
2023-04-07T05:47:50.106Z,13.40
2023-04-07T05:50:17.996Z,13.30
2023-04-07T05:52:44.999Z,16.80
2023-04-07T05:55:11.804Z,13.77
2023-04-07T05:57:38.608Z,18.70
2023-04-07T06:00:05.989Z,14.13
2023-04-07T06:02:33.015Z,13.93
2023-04-07T06:04:59.957Z,13.83
2023-04-07T06:07:26.835Z,17.27
2023-04-07T06:09:53.691Z,17.47
2023-04-07T06:12:20.804Z,24.07
2023-04-07T06:14:53.656Z,17.30
2023-04-07T06:17:20.686Z,19.60
2023-04-07T06:19:47.590Z,18.57
2023-04-07T06:22:14.728Z,13.47
2023-04-07T06:24:41.933Z,16.07
2023-04-07T06:27:08.798Z,18.27
2023-04-07T06:29:36.710Z,16.10
2023-04-07T06:32:03.542Z,13.87
2023-04-07T06:34:30.492Z,15.33
2023-04-07T06:36:58.370Z,12.13
2023-04-07T06:39:27.636Z,13.67
2023-04-07T06:41:54.504Z,12.23
2023-04-07T06:44:21.383Z,12.10
2023-04-07T06:46:50.627Z,11.77
2023-04-07T06:49:17.575Z,11.77
2023-04-07T06:51:44.452Z,16.17
2023-04-07T06:54:14.849Z,8.97
2023-04-07T06:56:42.995Z,11.90
2023-04-07T06:59:10.411Z,10.80
2023-04-07T07:01:38.014Z,11.37
2023-04-07T07:04:06.568Z,7.17
2023-04-07T07:06:33.932Z,5.03
2023-04-07T07:09:01.122Z,6.20
2023-04-07T07:11:28.072Z,8.60
2023-04-07T07:13:55.403Z,7.07
2023-04-07T07:16:24.097Z,9.63
2023-04-07T07:18:51.554Z,5.50
2023-04-07T07:21:19.458Z,4.80
2023-04-07T07:23:46.832Z,6.80
2023-04-07T07:26:14.091Z,7.30
2023-04-07T07:28:41.178Z,7.70
2023-04-07T07:31:13.408Z,6.43
2023-04-07T07:33:41.509Z,6.23
2023-04-07T07:36:08.947Z,7.17
2023-04-07T07:38:37.726Z,7.37
2023-04-07T07:41:06.381Z,6.57
2023-04-07T07:43:33.356Z,5.77
2023-04-07T07:46:00.213Z,5.07
2023-04-07T07:48:27.195Z,5.90
2023-04-07T07:50:54.203Z,9.50
2023-04-07T07:53:21.159Z,10.27
2023-04-07T07:55:48.200Z,7.97
2023-04-07T07:58:15.040Z,3.77
2023-04-07T08:00:41.943Z,7.87
2023-04-07T08:03:09.039Z,10.50
2023-04-07T08:05:36.101Z,5.17
2023-04-07T08:08:03.305Z,7.00
2023-04-07T08:10:30.144Z,6.33
2023-04-07T08:12:57.076Z,4.87
2023-04-07T08:15:23.959Z,4.40
2023-04-07T08:17:50.939Z,10.07
2023-04-07T08:20:18.054Z,2.87
2023-04-07T08:22:44.862Z,2.50
2023-04-07T08:25:11.694Z,8.70
2023-04-07T08:27:38.661Z,5.67
2023-04-07T08:30:07.343Z,4.23
2023-04-07T08:32:46.241Z,7.30
2023-04-07T08:35:13.180Z,5.23
2023-04-07T08:37:41.452Z,5.13
2023-04-07T08:40:08.507Z,7.23
2023-04-07T08:42:40.906Z,3.13
2023-04-07T08:45:09.221Z,11.03
2023-04-07T08:47:37.800Z,4.23
2023-04-07T08:50:09.983Z,7.60
2023-04-07T08:52:46.938Z,4.57
2023-04-07T08:55:13.908Z,6.23
2023-04-07T08:57:41.852Z,7.27
2023-04-07T09:00:10.018Z,5.37
2023-04-07T09:02:40.456Z,8.87
2023-04-07T09:05:09.054Z,7.47
2023-04-07T09:07:37.422Z,4.43
2023-04-07T09:10:04.858Z,5.97
2023-04-07T09:12:32.892Z,6.17
2023-04-07T09:15:00.675Z,5.07
2023-04-07T09:17:28.963Z,4.30
2023-04-07T09:20:00.866Z,7.40
2023-04-07T09:22:45.603Z,9.77
2023-04-07T09:25:16.846Z,7.17
2023-04-07T09:27:56.695Z,4.37
2023-04-07T09:30:24.068Z,8.07
2023-04-07T09:32:51.566Z,6.87
2023-04-07T09:35:18.619Z,3.80
2023-04-07T09:38:08.123Z,6.23
2023-04-07T09:40:36.725Z,6.80
2023-04-07T09:43:05.965Z,3.47
2023-04-07T09:45:36.276Z,5.77
2023-04-07T09:48:08.864Z,3.93
2023-04-07T09:50:42.113Z,4.70
2023-04-07T09:53:09.071Z,3.37
2023-04-07T09:55:36.793Z,8.20
2023-04-07T09:58:06.569Z,4.07
2023-04-07T10:00:35.495Z,5.50
2023-04-07T10:03:03.684Z,3.83
2023-04-07T10:05:32.988Z,4.20
2023-04-07T10:08:01.309Z,6.07
2023-04-07T10:10:29.129Z,3.77
2023-04-07T10:12:57.400Z,5.07
2023-04-07T10:15:24.677Z,8.83
2023-04-07T10:17:52.175Z,5.03
2023-04-07T10:20:23.152Z,9.67
2023-04-07T10:22:53.907Z,5.40
2023-04-07T10:25:23.920Z,7.67
2023-04-07T10:28:00.728Z,6.87
2023-04-07T10:30:31.318Z,6.70
2023-04-07T10:32:59.158Z,4.20
2023-04-07T10:35:26.294Z,11.87
2023-04-07T10:38:08.351Z,6.83
2023-04-07T10:40:36.823Z,7.47
2023-04-07T10:43:05.131Z,9.13
2023-04-07T10:45:52.367Z,3.20
2023-04-07T10:48:20.425Z,4.43
2023-04-07T10:51:08.091Z,5.30
2023-04-07T10:53:35.179Z,5.00
2023-04-07T10:56:02.848Z,8.73
2023-04-07T10:58:33.880Z,9.03
2023-04-07T11:01:01.087Z,3.97
2023-04-07T11:03:29.962Z,10.47
2023-04-07T11:06:14.275Z,9.53
2023-04-07T11:08:46.228Z,5.77
2023-04-07T11:11:20.907Z,6.33
2023-04-07T11:13:51.668Z,5.37
2023-04-07T11:16:20.831Z,7.63
2023-04-07T11:18:48.266Z,7.63
2023-04-07T11:21:19.542Z,6.30
2023-04-07T11:23:48.453Z,6.70
2023-04-07T11:26:16.487Z,4.37
2023-04-07T11:28:51.745Z,9.80
2023-04-07T11:31:26.129Z,8.77
2023-04-07T11:33:57.422Z,5.63
2023-04-07T11:36:32.381Z,3.40
2023-04-07T11:39:00.827Z,5.13
2023-04-07T11:41:30.741Z,7.53
2023-04-07T11:44:08.969Z,4.23
2023-04-07T11:46:36.885Z,5.77
2023-04-07T11:49:11.688Z,5.07
2023-04-07T11:51:38.568Z,8.63
2023-04-07T11:54:05.561Z,10.07
2023-04-07T11:56:46.582Z,5.93
2023-04-07T11:59:21.195Z,6.13
2023-04-07T12:01:48.520Z,8.17
2023-04-07T12:04:18.754Z,11.80
2023-04-07T12:06:49.692Z,7.10
2023-04-07T12:09:27.759Z,13.77
2023-04-07T12:11:54.990Z,8.23
2023-04-07T12:14:22.171Z,13.40
2023-04-07T12:16:49.128Z,12.70
2023-04-07T12:19:16.578Z,10.17
2023-04-07T12:21:43.939Z,5.37
2023-04-07T12:24:10.736Z,10.53
2023-04-07T12:26:37.602Z,6.07
2023-04-07T12:29:07.168Z,8.13
2023-04-07T12:31:34.916Z,5.97
2023-04-07T12:34:02.585Z,5.07
2023-04-07T12:36:29.732Z,7.53
2023-04-07T12:38:57.035Z,10.00
2023-04-07T12:41:24.952Z,4.70
2023-04-07T12:43:52.539Z,7.83
2023-04-07T12:46:19.973Z,7.93
2023-04-07T12:48:47.856Z,5.90
2023-04-07T12:51:14.962Z,8.57
2023-04-07T12:53:41.851Z,8.10
2023-04-07T12:56:08.655Z,9.67
2023-04-07T12:58:35.602Z,9.77
2023-04-07T13:01:02.479Z,4.90
2023-04-07T13:03:29.440Z,7.80
2023-04-07T13:05:56.435Z,8.73
2023-04-07T13:08:23.262Z,8.00
2023-04-07T13:10:50.130Z,8.80
2023-04-07T13:13:17.018Z,6.70
2023-04-07T13:15:44.128Z,8.63
2023-04-07T13:18:11.203Z,9.07
2023-04-07T13:20:38.124Z,5.37
2023-04-07T13:23:09.530Z,7.13
2023-04-07T13:25:37.591Z,9.03
2023-04-07T13:28:04.656Z,4.87
2023-04-07T13:30:31.957Z,4.60
2023-04-07T13:32:58.860Z,9.40
2023-04-07T13:35:25.896Z,8.20
2023-04-07T13:37:53.089Z,10.67
2023-04-07T13:40:20.022Z,8.80
2023-04-07T13:42:46.854Z,5.33
2023-04-07T13:45:13.783Z,5.07
2023-04-07T13:47:40.705Z,10.57
2023-04-07T13:50:08.037Z,7.70
2023-04-07T13:52:35.675Z,6.97
2023-04-07T13:55:04.362Z,12.10
2023-04-07T13:57:31.492Z,6.30
2023-04-07T13:59:58.588Z,9.63
2023-04-07T14:02:28.172Z,10.53
2023-04-07T14:04:55.546Z,6.47
2023-04-07T14:07:23.152Z,6.47
2023-04-07T14:09:50.445Z,5.63
2023-04-07T14:12:17.434Z,11.90
2023-04-07T14:14:44.221Z,9.03
2023-04-07T14:17:11.266Z,9.80
2023-04-07T14:19:38.159Z,7.73
2023-04-07T14:22:04.973Z,11.80
2023-04-07T14:24:31.800Z,5.00
2023-04-07T14:26:58.684Z,8.27
2023-04-07T14:29:25.575Z,8.43
2023-04-07T14:31:52.334Z,8.87
2023-04-07T14:34:19.115Z,10.43
2023-04-07T14:36:56.146Z,9.90
2023-04-07T14:39:24.122Z,6.83
2023-04-07T14:41:52.458Z,7.23
2023-04-07T14:44:19.323Z,6.10
2023-04-07T14:46:46.693Z,11.17
2023-04-07T14:49:14.672Z,7.50
2023-04-07T14:51:41.701Z,8.10
2023-04-07T14:54:08.596Z,7.47
2023-04-07T14:56:35.468Z,10.97
2023-04-07T14:59:02.372Z,10.23
2023-04-07T15:01:29.230Z,8.70
2023-04-07T15:03:56.499Z,9.20
2023-04-07T15:06:23.632Z,7.07
2023-04-07T15:08:50.491Z,13.00
2023-04-07T15:11:17.379Z,5.73
2023-04-07T15:13:44.194Z,7.77
2023-04-07T15:16:12.960Z,8.20
2023-04-07T15:18:41.568Z,10.10
2023-04-07T15:21:12.794Z,8.97
2023-04-07T15:23:41.758Z,7.73
2023-04-07T15:26:10.097Z,11.50
2023-04-07T15:28:37.347Z,10.90
2023-04-07T15:31:08.700Z,9.43
2023-04-07T15:33:39.881Z,6.63
2023-04-07T15:36:08.633Z,10.63
2023-04-07T15:38:35.927Z,12.83
2023-04-07T15:41:02.709Z,8.50
2023-04-07T15:43:29.682Z,5.03
2023-04-07T15:45:56.658Z,5.20
2023-04-07T15:48:23.814Z,12.03
2023-04-07T15:50:51.896Z,8.97
2023-04-07T15:53:18.822Z,9.53
2023-04-07T15:55:45.680Z,8.37
2023-04-07T15:58:12.624Z,5.83
2023-04-07T16:00:40.234Z,7.87
2023-04-07T16:03:07.314Z,8.87
2023-04-07T16:05:34.278Z,10.03
2023-04-07T16:08:01.130Z,10.87
2023-04-07T16:10:27.923Z,6.73
2023-04-07T16:12:54.833Z,11.03
2023-04-07T16:15:36.479Z,6.40
2023-04-07T16:18:07.742Z,9.80
2023-04-07T16:20:34.668Z,5.10
2023-04-07T16:23:01.872Z,8.97
2023-04-07T16:25:28.873Z,9.70
2023-04-07T16:27:55.764Z,8.87
2023-04-07T16:30:23.960Z,6.33
2023-04-07T16:32:51.106Z,11.23
2023-04-07T16:35:18.116Z,7.70
2023-04-07T16:37:48.230Z,11.30
2023-04-07T16:40:15.046Z,11.30
2023-04-07T16:42:42.151Z,10.77
2023-04-07T16:45:09.339Z,9.20
2023-04-07T16:47:37.636Z,5.70
2023-04-07T16:50:05.027Z,10.87
2023-04-07T16:52:32.195Z,8.43
2023-04-07T16:55:00.052Z,9.83
2023-04-07T16:57:26.964Z,13.23
2023-04-07T16:59:53.917Z,14.90
2023-04-07T17:02:20.880Z,11.10
2023-04-07T17:04:47.920Z,9.40
2023-04-07T17:07:14.817Z,9.33
2023-04-07T17:09:41.692Z,13.47
2023-04-07T17:12:08.565Z,15.67
2023-04-07T17:14:35.503Z,6.57
2023-04-07T17:17:02.630Z,8.10
2023-04-07T17:19:29.708Z,10.60
2023-04-07T17:21:56.758Z,7.50
2023-04-07T17:24:23.697Z,10.00
2023-04-07T17:26:50.538Z,10.60
2023-04-07T17:29:17.709Z,11.47
2023-04-07T17:31:44.614Z,8.40
2023-04-07T17:34:11.805Z,9.50
2023-04-07T17:36:38.805Z,13.10
2023-04-07T17:39:05.655Z,8.97
2023-04-07T17:41:35.772Z,11.80
2023-04-07T17:44:02.785Z,9.37
2023-04-07T17:46:29.848Z,12.33
2023-04-07T17:49:00.675Z,11.60
2023-04-07T17:51:27.806Z,11.17
2023-04-07T17:53:55.177Z,13.53
2023-04-07T17:56:22.184Z,11.03
2023-04-07T17:58:49.099Z,10.03
2023-04-07T18:01:16.915Z,11.83
2023-04-07T18:03:44.674Z,13.33
2023-04-07T18:06:16.783Z,12.70
2023-04-07T18:08:48.525Z,9.20
2023-04-07T18:11:16.756Z,8.00
2023-04-07T18:13:43.680Z,7.37
2023-04-07T18:16:11.906Z,10.27
2023-04-07T18:18:39.084Z,12.20
2023-04-07T18:21:09.093Z,7.43
2023-04-07T18:23:35.934Z,9.90
2023-04-07T18:26:04.920Z,11.60
2023-04-07T18:28:32.118Z,8.73
2023-04-07T18:31:07.629Z,10.10
2023-04-07T18:33:36.297Z,8.67
2023-04-07T18:36:06.761Z,13.67
2023-04-07T18:38:34.680Z,8.37
2023-04-07T18:41:02.514Z,9.03
2023-04-07T18:43:30.153Z,9.93
2023-04-07T18:45:57.159Z,14.67
2023-04-07T18:48:24.013Z,11.90
2023-04-07T18:50:52.473Z,13.47
2023-04-07T18:53:23.320Z,11.07
2023-04-07T18:55:50.467Z,8.47
2023-04-07T18:58:17.482Z,8.87
2023-04-07T19:00:44.749Z,12.87
2023-04-07T19:03:11.938Z,10.70
2023-04-07T19:05:39.956Z,8.27
2023-04-07T19:08:07.076Z,8.83
2023-04-07T19:10:34.758Z,8.87
2023-04-07T19:13:01.916Z,8.73
2023-04-07T19:15:34.117Z,11.37
2023-04-07T19:18:04.478Z,12.30
2023-04-07T19:20:33.754Z,8.03
2023-04-07T19:23:01.944Z,7.00
2023-04-07T19:25:29.802Z,11.80
2023-04-07T19:27:56.949Z,10.47
2023-04-07T19:30:24.101Z,9.67
2023-04-07T19:32:50.969Z,16.30
2023-04-07T19:35:17.887Z,11.77
2023-04-07T19:37:45.673Z,13.70
2023-04-07T19:40:14.328Z,11.70
2023-04-07T19:42:41.977Z,14.43
2023-04-07T19:45:09.564Z,14.23
2023-04-07T19:47:36.973Z,10.47
2023-04-07T19:50:05.604Z,17.97
2023-04-07T19:52:33.197Z,17.00
2023-04-07T19:55:01.414Z,17.30
2023-04-07T19:57:29.115Z,12.83
2023-04-07T19:59:56.165Z,14.47
2023-04-07T20:02:23.429Z,14.50
2023-04-07T20:04:51.138Z,16.63
2023-04-07T20:07:17.979Z,10.50
2023-04-07T20:09:45.078Z,16.53
2023-04-07T20:12:11.970Z,11.00
2023-04-07T20:14:39.263Z,12.20
2023-04-07T20:17:06.458Z,11.67
2023-04-07T20:19:33.462Z,13.03
2023-04-07T20:22:00.471Z,14.47
2023-04-07T20:24:27.964Z,17.00
2023-04-07T20:26:54.810Z,12.37
2023-04-07T20:29:22.351Z,16.97
2023-04-07T20:31:53.812Z,10.87
2023-04-07T20:34:21.466Z,14.83
2023-04-07T20:36:51.038Z,21.20
2023-04-07T20:39:17.859Z,17.00
2023-04-07T20:41:45.632Z,18.87
2023-04-07T20:44:12.489Z,18.63
2023-04-07T20:46:39.386Z,13.87
2023-04-07T20:49:07.902Z,17.90
2023-04-07T20:51:38.581Z,16.53
2023-04-07T20:54:05.513Z,13.60
2023-04-07T20:56:32.449Z,16.97
2023-04-07T20:58:59.425Z,18.70
2023-04-07T21:01:26.626Z,18.47
2023-04-07T21:03:54.187Z,17.20
2023-04-07T21:06:21.503Z,19.73
2023-04-07T21:08:48.561Z,19.70
2023-04-07T21:11:16.886Z,17.80
2023-04-07T21:13:43.796Z,13.90
2023-04-07T21:16:11.072Z,15.37
2023-04-07T21:18:38.150Z,20.03
2023-04-07T21:21:05.478Z,16.07
2023-04-07T21:23:32.319Z,15.40
2023-04-07T21:26:03.364Z,18.67
2023-04-07T21:28:30.425Z,14.40
2023-04-07T21:30:57.360Z,17.43
2023-04-07T21:33:24.696Z,17.93
2023-04-07T21:35:52.314Z,18.07
2023-04-07T21:38:19.470Z,18.30
2023-04-07T21:40:46.305Z,16.07
2023-04-07T21:43:13.261Z,17.30
2023-04-07T21:45:40.498Z,19.90
2023-04-07T21:48:07.401Z,17.27
2023-04-07T21:50:34.559Z,12.57
2023-04-07T21:53:01.515Z,12.23
2023-04-07T21:55:28.418Z,18.10
2023-04-07T21:57:55.376Z,20.47
2023-04-07T22:00:22.486Z,18.97
2023-04-07T22:02:49.763Z,16.43
2023-04-07T22:05:17.033Z,20.47
2023-04-07T22:07:45.607Z,20.70
2023-04-07T22:10:13.174Z,18.40
2023-04-07T22:12:40.382Z,21.37
2023-04-07T22:15:08.472Z,23.43
2023-04-07T22:17:35.840Z,22.60
2023-04-07T22:20:03.326Z,17.23
2023-04-07T22:22:30.142Z,18.40
2023-04-07T22:24:56.975Z,23.63
2023-04-07T22:27:23.826Z,18.40
2023-04-07T22:29:50.597Z,21.07
2023-04-07T22:32:17.487Z,24.40
2023-04-07T22:34:45.967Z,17.80
2023-04-07T22:37:13.361Z,20.07
2023-04-07T22:39:40.288Z,22.77
2023-04-07T22:42:07.097Z,22.20
2023-04-07T22:44:33.882Z,24.67
2023-04-07T22:47:00.833Z,19.10
2023-04-07T22:49:28.221Z,20.27
2023-04-07T22:51:57.093Z,30.63
2023-04-07T22:54:24.033Z,25.10
2023-04-07T22:56:51.110Z,24.50
2023-04-07T22:59:18.128Z,29.27
2023-04-07T23:01:45.155Z,29.80
2023-04-07T23:04:12.099Z,29.97
2023-04-07T23:06:40.601Z,27.80
2023-04-07T23:09:07.706Z,30.00
2023-04-07T23:11:34.698Z,31.53
2023-04-07T23:14:04.990Z,22.07
2023-04-07T23:16:34.889Z,27.87
2023-04-07T23:19:02.170Z,29.73
2023-04-07T23:21:31.328Z,32.20
2023-04-07T23:23:58.719Z,26.40
2023-04-07T23:26:26.825Z,29.57
2023-04-07T23:28:53.719Z,33.50
2023-04-07T23:31:20.798Z,28.53
2023-04-07T23:33:47.846Z,29.60
2023-04-07T23:36:14.958Z,29.63
2023-04-07T23:38:42.029Z,24.97
2023-04-07T23:41:08.931Z,25.97
2023-04-07T23:43:35.787Z,26.53
2023-04-07T23:46:03.055Z,25.47
2023-04-07T23:48:31.482Z,36.23
2023-04-07T23:51:00.007Z,25.53
2023-04-07T23:53:27.108Z,28.10
2023-04-07T23:55:54.172Z,25.03
2023-04-07T23:58:21.001Z,26.17
